Time;durP1;ratioP1;P1;durP2;ratioP2;P2;SDS_P1;SDS_P2;PMS_P1;PMS_P2;Temp;Humidity;BMP_temperature;BMP_pressure;BME280_temperature;BME280_humidity;BME280_pressure;Samples;Min_cycle;Max_cycle;Signal;HPM_P1;HPM_P2
2021/12/07 00:01:22;;;;;;;;;;;;;;;7.15;79.14;98426.88;5026755;28;20359;-81
2021/12/07 00:03:47;;;;;;;;;;;;;;;7.18;78.95;98432.06;5025085;28;20438;-81
2021/12/07 00:06:12;;;;;;;;;;;;;;;7.02;80.09;98431.53;5027521;28;19944;-81
2021/12/07 00:08:40;;;;;;;;;;;;;;;6.80;80.80;98450.31;5030423;28;19923;-81
2021/12/07 00:11:06;;;;;;;;;;;;;;;6.84;80.85;98437.16;5030012;28;19916;-81
2021/12/07 00:13:36;;;;;;;;;;;;;;;6.82;80.26;98432.78;5029527;28;19928;-81
2021/12/07 00:16:01;;;;;;;;;;;;;;;6.86;80.70;98424.88;5030158;28;19999;-81
2021/12/07 00:18:26;;;;;;;;;;;;;;;7.03;80.21;98419.28;5029558;28;20379;-81
2021/12/07 00:20:52;;;;;;;;;;;;;;;7.01;79.60;98424.56;5028414;28;19921;-82
2021/12/07 00:23:17;;;;;;;;;;;;;;;7.08;79.32;98415.69;5030038;28;20307;-81
2021/12/07 00:25:43;;;;;;;;;;;;;;;7.04;79.28;98387.78;5028169;28;20737;-81
2021/12/07 00:28:08;;;;;;;;;;;;;;;7.17;79.80;98414.63;5029491;28;19927;-81
2021/12/07 00:30:35;;;;;;;;;;;;;;;7.17;79.29;98414.63;5029533;28;19917;-81
2021/12/07 00:35:36;;;;;;;;;;;;;;;7.16;79.40;98410.25;5028801;28;19921;-80
2021/12/07 00:38:05;;;;;;;;;;;;;;;7.31;78.74;98394.19;5029533;28;20296;-81
2021/12/07 00:40:30;;;;;;;;;;;;;;;7.31;78.65;98375.81;5028781;28;19928;-81
2021/12/07 00:42:55;;;;;;;;;;;;;;;7.05;80.45;98372.94;5029671;28;20311;-81
2021/12/07 00:45:22;;;;;;;;;;;;;;;7.03;80.82;98391.31;5028675;28;19928;-81
2021/12/07 00:47:51;;;;;;;;;;;;;;;6.96;81.29;98374.84;5029475;28;20019;-82
2021/12/07 00:50:17;;;;;;;;;;;;;;;7.12;80.58;98364.00;5029692;28;19936;-82
2021/12/07 00:52:43;;;;;;;;;;;;;;;7.22;79.81;98373.41;5029592;28;19913;-81
2021/12/07 00:55:10;;;;;;;;;;;;;;;7.07;79.72;98364.13;5029259;28;19927;-81
2021/12/07 00:57:36;;;;;;;;;;;;;;;7.09;79.77;98380.69;5029215;28;20023;-81
2021/12/07 01:00:04;;;;;;;;;;;;;;;7.25;79.33;98367.25;5029427;28;20019;-81
2021/12/07 01:02:29;;;;;;;;;;;;;;;7.01;80.67;98364.25;5028635;28;19967;-81
2021/12/07 01:05:02;;;;;;;;;;;;;;;6.85;81.10;98357.63;5028674;28;19960;-81
2021/12/07 01:07:55;;;;;;;;;;;;;;;6.99;80.81;98348.56;5028413;28;20797;-81
2021/12/07 01:26:40;;;;;;;;;;;;;;;6.97;82.86;98324.13;5027504;28;20432;-81
2021/12/07 01:29:06;;;;;;;;;;;;;;;6.92;84.07;98319.88;5027959;28;19917;-81
2021/12/07 01:31:47;;;;;;;;;;;;;;;7.23;82.19;98320.06;5028789;28;19924;-81
2021/12/07 01:45:26;;;;;;;;;;;;;;;7.52;80.87;98308.00;5027004;28;19967;-80
2021/12/07 01:53:00;;;;;;;;;;;;;;;6.91;85.04;98295.44;5028322;28;19978;-80
2021/12/07 02:00:49;;;;;;;;;;;;;;;7.10;84.27;98284.53;5027968;28;19983;-81
2021/12/07 02:03:15;;;;;;;;;;;;;;;7.25;82.65;98272.81;5028256;28;19919;-81
2021/12/07 02:05:40;;;;;;;;;;;;;;;7.44;82.28;98294.22;5027564;28;19930;-81
2021/12/07 02:08:06;;;;;;;;;;;;;;;7.54;82.42;98293.09;5027676;28;20311;-81
2021/12/07 02:10:32;;;;;;;;;;;;;;;7.35;81.59;98283.06;5028123;28;20031;-81
2021/12/07 02:13:04;;;;;;;;;;;;;;;6.79;83.86;98291.31;5028066;28;20310;-81
2021/12/07 02:15:30;;;;;;;;;;;;;;;6.61;86.15;98294.34;5027999;28;19920;-81
2021/12/07 02:17:56;;;;;;;;;;;;;;;7.04;84.83;98290.75;5027513;28;20387;-81
2021/12/07 02:20:23;;;;;;;;;;;;;;;7.13;83.88;98281.84;5027828;28;20000;-81
2021/12/07 02:22:49;;;;;;;;;;;;;;;7.38;83.04;98286.50;5027932;28;20322;-81
2021/12/07 02:25:15;;;;;;;;;;;;;;;7.57;81.84;98263.25;5027798;28;19920;-80
2021/12/07 02:27:40;;;;;;;;;;;;;;;7.37;82.30;98242.78;5027239;28;20321;-80
2021/12/07 02:30:08;;;;;;;;;;;;;;;7.21;83.90;98258.91;5027440;28;19913;-80
2021/12/07 02:32:33;;;;;;;;;;;;;;;7.44;82.83;98260.94;5027844;28;19916;-80
2021/12/07 02:35:00;;;;;;;;;;;;;;;7.29;82.74;98267.47;5027337;28;20342;-81
2021/12/07 02:37:28;;;;;;;;;;;;;;;7.23;82.03;98274.59;5027605;28;19925;-81
2021/12/07 02:39:53;;;;;;;;;;;;;;;7.24;83.20;98269.31;5027583;28;20438;-81
2021/12/07 02:42:19;;;;;;;;;;;;;;;7.43;81.82;98251.38;5027580;28;20016;-81
2021/12/07 02:44:44;;;;;;;;;;;;;;;7.51;81.52;98254.66;5027480;28;20628;-81
2021/12/07 02:47:10;;;;;;;;;;;;;;;7.57;81.51;98264.16;5027073;28;20303;-81
2021/12/07 02:49:35;;;;;;;;;;;;;;;7.28;81.89;98270.13;5026414;28;20310;-81
2021/12/07 02:52:03;;;;;;;;;;;;;;;7.28;82.34;98275.38;5028370;28;19913;-81
2021/12/07 02:54:28;;;;;;;;;;;;;;;7.35;82.38;98287.41;5026166;28;20007;-81
2021/12/07 02:56:54;;;;;;;;;;;;;;;7.31;82.72;98286.63;5026840;28;20007;-80
2021/12/07 02:59:20;;;;;;;;;;;;;;;7.38;82.96;98255.84;5025826;28;19995;-80
2021/12/07 03:01:53;;;;;;;;;;;;;;;7.50;82.17;98263.41;5027066;28;19921;-82
2021/12/07 03:04:25;;;;;;;;;;;;;;;7.42;82.49;98252.28;5026468;28;20009;-81
2021/12/07 03:07:11;;;;;;;;;;;;;;;7.59;83.03;98248.38;5026296;28;19984;-80
2021/12/07 03:26:10;;;;;;;;;;;;;;;7.80;81.91;98278.41;5026946;28;19923;-80
2021/12/07 03:28:50;;;;;;;;;;;;;;;7.76;82.40;98282.03;5026811;28;20422;-81
2021/12/07 03:31:16;;;;;;;;;;;;;;;7.77;81.58;98271.50;5027373;28;19917;-81
2021/12/07 03:33:42;;;;;;;;;;;;;;;7.82;81.68;98268.75;5027094;28;20443;-81
2021/12/07 03:36:08;;;;;;;;;;;;;;;7.78;81.74;98265.34;5026610;28;19913;-81
2021/12/07 03:38:34;;;;;;;;;;;;;;;7.76;82.36;98256.66;5027150;28;19921;-81
2021/12/07 03:40:59;;;;;;;;;;;;;;;7.82;81.87;98253.00;5027927;28;19999;-82
2021/12/07 03:43:25;;;;;;;;;;;;;;;7.91;81.42;98237.00;5031004;28;19983;-81
2021/12/07 03:45:50;;;;;;;;;;;;;;;7.78;82.79;98215.44;5030028;28;19923;-80
2021/12/07 03:48:16;;;;;;;;;;;;;;;7.91;82.16;98216.00;5030757;28;20427;-80
2021/12/07 03:50:42;;;;;;;;;;;;;;;7.84;82.91;98241.53;5030736;28;19920;-80
2021/12/07 03:53:07;;;;;;;;;;;;;;;7.71;83.61;98253.28;5030397;28;19948;-81
2021/12/07 03:55:33;;;;;;;;;;;;;;;7.82;83.44;98261.72;5029762;28;19943;-81
2021/12/07 03:57:59;;;;;;;;;;;;;;;7.87;82.46;98270.34;5029968;28;19928;-81
2021/12/07 04:00:25;;;;;;;;;;;;;;;7.82;82.38;98261.72;5029818;28;19987;-82
2021/12/07 04:02:53;;;;;;;;;;;;;;;7.71;83.69;98261.16;5031111;28;19927;-81
2021/12/07 04:05:19;;;;;;;;;;;;;;;7.75;83.02;98265.41;5030173;28;19924;-79
2021/12/07 04:07:45;;;;;;;;;;;;;;;7.85;82.81;98271.31;5028956;28;19928;-80
2021/12/07 04:10:14;;;;;;;;;;;;;;;7.78;83.54;98272.34;5030201;28;20311;-81
2021/12/07 04:12:40;;;;;;;;;;;;;;;7.98;83.12;98293.69;5028858;28;19917;-83
2021/12/07 04:15:07;;;;;;;;;;;;;;;7.92;82.91;98293.00;5029876;28;20015;-80
2021/12/07 04:17:33;;;;;;;;;;;;;;;8.06;83.50;98299.63;5030187;28;20528;-81
2021/12/07 04:19:58;;;;;;;;;;;;;;;7.66;85.48;98316.41;5029710;28;19925;-79
2021/12/07 04:22:24;;;;;;;;;;;;;;;7.87;85.50;98317.59;5029107;28;20016;-80
2021/12/07 04:24:50;;;;;;;;;;;;;;;8.06;84.23;98307.50;5028904;28;20298;-80
2021/12/07 04:27:15;;;;;;;;;;;;;;;8.04;85.44;98290.03;5028812;28;19913;-80
2021/12/07 04:29:40;;;;;;;;;;;;;;;8.05;85.64;98269.00;5026980;28;19924;-80
2021/12/07 04:32:06;;;;;;;;;;;;;;;7.84;85.88;98238.06;5030053;28;20746;-81
2021/12/07 04:34:31;;;;;;;;;;;;;;;7.92;87.16;98235.22;5028293;28;19924;-81
2021/12/07 04:36:57;;;;;;;;;;;;;;;8.22;85.74;98234.38;5028660;28;19948;-80
2021/12/07 04:39:22;;;;;;;;;;;;;;;8.20;85.77;98230.94;5028360;28;20063;-80
2021/12/07 04:41:49;;;;;;;;;;;;;;;8.18;86.45;98232.72;5029106;28;19971;-81
2021/12/07 04:44:14;;;;;;;;;;;;;;;8.03;86.66;98233.16;5028118;28;19913;-80
2021/12/07 04:46:51;;;;;;;;;;;;;;;7.79;87.19;98246.06;5027300;28;19921;-80
2021/12/07 05:00:24;;;;;;;;;;;;;;;8.27;87.07;98278.03;4987262;28;19918;-81
2021/12/07 05:03:11;;;;;;;;;;;;;;;8.21;87.91;98272.03;5007905;28;20047;-81
2021/12/07 05:05:38;;;;;;;;;;;;;;;8.49;87.09;98258.13;5017885;28;20007;-80
2021/12/07 05:08:08;;;;;;;;;;;;;;;8.63;86.79;98255.09;5028733;28;19920;-80
2021/12/07 05:10:48;;;;;;;;;;;;;;;8.50;86.29;98262.50;5028221;28;20382;-81
2021/12/07 05:18:23;;;;;;;;;;;;;;;7.79;89.74;98258.34;5029077;28;20319;-81
2021/12/07 05:39:57;;;;;;;;;;;;;;;8.60;87.74;98249.94;5021557;28;19971;-81
2021/12/07 05:42:23;;;;;;;;;;;;;;;8.73;87.98;98239.94;5027200;28;20450;-81
2021/12/07 05:44:50;;;;;;;;;;;;;;;8.80;86.81;98235.34;5027908;28;19921;-83
2021/12/07 05:47:15;;;;;;;;;;;;;;;8.41;88.87;98229.44;5026711;28;19921;-81
2021/12/07 05:49:41;;;;;;;;;;;;;;;8.37;89.65;98219.94;5028415;28;20571;-80
2021/12/07 05:52:06;;;;;;;;;;;;;;;8.55;89.04;98221.16;5028304;28;19952;-81
2021/12/07 05:54:31;;;;;;;;;;;;;;;8.87;87.62;98226.34;5027874;28;20380;-80
2021/12/07 05:56:57;;;;;;;;;;;;;;;9.06;86.95;98242.41;5014755;28;19926;-80
2021/12/07 05:59:22;;;;;;;;;;;;;;;9.13;86.39;98243.94;5028446;28;19913;-81
2021/12/07 06:01:47;;;;;;;;;;;;;;;9.16;86.11;98242.97;5026406;28;19928;-79
2021/12/07 06:04:13;;;;;;;;;;;;;;;9.00;86.40;98245.22;5027765;28;19917;-79
2021/12/07 06:06:39;;;;;;;;;;;;;;;9.07;86.39;98244.97;5026601;28;19921;-81
2021/12/07 06:09:05;;;;;;;;;;;;;;;9.24;85.89;98244.44;5027599;28;19932;-79
2021/12/07 06:11:31;;;;;;;;;;;;;;;9.19;86.03;98246.38;5027907;28;19917;-81
2021/12/07 06:13:56;;;;;;;;;;;;;;;9.35;86.01;98249.34;5024177;28;19925;-81
2021/12/07 06:16:21;;;;;;;;;;;;;;;9.34;85.92;98242.34;5019443;28;19917;-80
2021/12/07 06:18:47;;;;;;;;;;;;;;;9.37;85.88;98238.78;5026696;28;20330;-80
2021/12/07 06:21:13;;;;;;;;;;;;;;;9.37;85.21;98225.63;5028183;28;19917;-80
2021/12/07 06:23:38;;;;;;;;;;;;;;;9.22;86.50;98226.97;5026306;28;20095;-80
2021/12/07 06:26:03;;;;;;;;;;;;;;;9.43;85.71;98218.38;5027507;28;20405;-81
2021/12/07 06:28:29;;;;;;;;;;;;;;;9.39;86.05;98206.25;5027766;28;19916;-80
2021/12/07 06:30:55;;;;;;;;;;;;;;;9.43;86.25;98212.25;5027631;28;19920;-80
2021/12/07 06:33:21;;;;;;;;;;;;;;;9.46;86.19;98217.41;5026149;28;19936;-80
2021/12/07 06:35:49;;;;;;;;;;;;;;;9.55;87.16;98225.00;5027723;28;19947;-80
2021/12/07 06:38:17;;;;;;;;;;;;;;;9.60;86.95;98217.78;5027922;28;19917;-80
2021/12/07 06:40:43;;;;;;;;;;;;;;;9.60;87.36;98209.03;5028058;28;20420;-80
2021/12/07 06:43:08;;;;;;;;;;;;;;;9.46;88.49;98213.00;5026964;28;20070;-80
2021/12/07 06:45:33;;;;;;;;;;;;;;;9.84;87.41;98226.63;5027456;28;19947;-81
2021/12/07 06:47:59;;;;;;;;;;;;;;;9.79;87.18;98220.66;5027670;28;19916;-80
2021/12/07 06:50:25;;;;;;;;;;;;;;;9.78;86.75;98211.03;5027468;28;19920;-79
2021/12/07 06:52:52;;;;;;;;;;;;;;;9.72;87.33;98203.34;5027458;28;19924;-80
2021/12/07 06:55:17;;;;;;;;;;;;;;;9.73;87.93;98191.03;5017187;28;19928;-81
2021/12/07 06:57:42;;;;;;;;;;;;;;;9.83;87.68;98188.00;5026946;28;19917;-81
2021/12/07 07:00:09;;;;;;;;;;;;;;;9.74;87.81;98190.97;5027159;28;20351;-80
2021/12/07 07:02:34;;;;;;;;;;;;;;;9.81;87.60;98184.59;5022758;28;19939;-80
2021/12/07 07:04:59;;;;;;;;;;;;;;;9.98;87.30;98191.03;5027097;28;19917;-80
2021/12/07 07:07:25;;;;;;;;;;;;;;;9.76;88.93;98191.78;5027432;28;20716;-80
2021/12/07 07:09:51;;;;;;;;;;;;;;;9.71;88.73;98188.44;5026938;28;20346;-80
2021/12/07 07:12:17;;;;;;;;;;;;;;;9.76;89.40;98186.53;5027303;28;19913;-82
2021/12/07 07:14:42;;;;;;;;;;;;;;;9.82;89.02;98183.69;5027735;28;20391;-80
2021/12/07 07:17:07;;;;;;;;;;;;;;;9.88;89.10;98187.00;5028308;28;19920;-80
2021/12/07 07:19:33;;;;;;;;;;;;;;;9.65;90.49;98183.41;5022433;28;19913;-80
2021/12/07 07:22:01;;;;;;;;;;;;;;;10.03;88.99;98171.47;5010648;28;19913;-80
2021/12/07 07:24:27;;;;;;;;;;;;;;;10.14;88.14;98184.25;5011407;28;19913;-81
2021/12/07 07:26:52;;;;;;;;;;;;;;;10.19;88.14;98186.72;5011304;28;20415;-80
2021/12/07 07:29:17;;;;;;;;;;;;;;;9.86;89.88;98187.06;5010823;28;19921;-80
2021/12/07 07:31:43;;;;;;;;;;;;;;;10.10;89.91;98192.31;5011908;28;20358;-81
2021/12/07 07:34:08;;;;;;;;;;;;;;;10.38;88.22;98206.22;5011549;28;20450;-80
2021/12/07 07:36:33;;;;;;;;;;;;;;;10.29;87.57;98187.25;5011220;28;20392;-81
2021/12/07 07:38:59;;;;;;;;;;;;;;;10.06;89.68;98178.41;5011158;28;19992;-80
2021/12/07 07:41:24;;;;;;;;;;;;;;;10.28;89.28;98199.53;5011405;28;20296;-80
2021/12/07 07:43:50;;;;;;;;;;;;;;;10.57;87.63;98209.00;5011003;28;19917;-81
2021/12/07 07:46:15;;;;;;;;;;;;;;;10.53;87.28;98217.97;5011759;28;19917;-79
2021/12/07 07:48:40;;;;;;;;;;;;;;;10.45;87.51;98216.53;5011035;28;19995;-80
2021/12/07 07:51:06;;;;;;;;;;;;;;;10.65;86.29;98232.44;5010924;28;19921;-80
2021/12/07 07:53:31;;;;;;;;;;;;;;;10.72;85.94;98249.75;5011078;28;19917;-80
2021/12/07 07:55:56;;;;;;;;;;;;;;;10.71;86.05;98241.91;5011018;28;19921;-80
2021/12/07 07:58:22;;;;;;;;;;;;;;;10.32;87.31;98218.75;5011021;28;19956;-80
2021/12/07 08:00:48;;;;;;;;;;;;;;;10.21;87.90;98212.09;5010804;28;19959;-81
2021/12/07 08:03:13;;;;;;;;;;;;;;;10.39;87.23;98218.50;5011460;28;20461;-80
2021/12/07 08:05:38;;;;;;;;;;;;;;;10.24;86.71;98234.84;5011216;28;19917;-80
2021/12/07 08:08:04;;;;;;;;;;;;;;;10.36;87.12;98230.91;5024775;28;20019;-83
2021/12/07 08:10:29;;;;;;;;;;;;;;;10.12;88.63;98232.69;5030023;28;19916;-83
2021/12/07 08:12:59;;;;;;;;;;;;;;;10.41;88.78;98243.94;5030322;28;20470;-83
2021/12/07 08:15:25;;;;;;;;;;;;;;;10.52;86.74;98226.78;5030709;28;19913;-84
2021/12/07 08:17:50;;;;;;;;;;;;;;;10.32;87.67;98226.66;5031101;28;20007;-82
2021/12/07 08:20:16;;;;;;;;;;;;;;;10.52;87.33;98228.59;5030383;28;20003;-83
2021/12/07 08:22:41;;;;;;;;;;;;;;;10.52;87.72;98218.88;5029209;28;19940;-81
2021/12/07 08:25:07;;;;;;;;;;;;;;;10.46;87.06;98227.03;5029249;28;20059;-81
2021/12/07 08:27:32;;;;;;;;;;;;;;;10.80;87.24;98233.66;5028107;28;19971;-80
2021/12/07 08:29:57;;;;;;;;;;;;;;;10.98;85.71;98249.66;5028024;28;19937;-79
2021/12/07 08:32:23;;;;;;;;;;;;;;;10.98;85.44;98244.38;5028403;28;19921;-80
2021/12/07 08:34:48;;;;;;;;;;;;;;;10.91;84.31;98244.63;5028837;28;19909;-80
2021/12/07 08:37:13;;;;;;;;;;;;;;;10.96;83.97;98233.03;5027671;28;20011;-80
2021/12/07 08:39:39;;;;;;;;;;;;;;;10.91;83.56;98228.78;5027934;28;19921;-79
2021/12/07 08:42:05;;;;;;;;;;;;;;;10.85;84.33;98220.28;5029204;28;19913;-79
2021/12/07 08:44:31;;;;;;;;;;;;;;;10.74;83.18;98210.16;5029412;28;19917;-79
2021/12/07 08:46:57;;;;;;;;;;;;;;;10.89;85.34;98209.53;5028393;28;19917;-80
2021/12/07 08:49:22;;;;;;;;;;;;;;;11.02;83.93;98212.53;5028944;28;20340;-80
2021/12/07 08:51:48;;;;;;;;;;;;;;;10.91;84.23;98206.84;5022388;28;19921;-80
2021/12/07 08:59:48;;;;;;;;;;;;;;;11.34;82.27;98206.84;5028011;28;20009;-81
2021/12/07 09:02:18;;;;;;;;;;;;;;;11.33;81.38;98202.50;5025478;28;20375;-80
2021/12/07 09:04:45;;;;;;;;;;;;;;;11.49;80.86;98186.88;5029480;28;20438;-79
2021/12/07 09:07:10;;;;;;;;;;;;;;;11.81;78.72;98177.53;5025985;28;19920;-80
2021/12/07 09:09:36;;;;;;;;;;;;;;;11.83;77.65;98179.19;5029119;28;20417;-79
2021/12/07 09:12:03;;;;;;;;;;;;;;;11.73;78.77;98175.25;5028901;28;19921;-79
2021/12/07 09:14:30;;;;;;;;;;;;;;;11.73;78.43;98177.88;5028166;28;20063;-80
2021/12/07 09:16:55;;;;;;;;;;;;;;;11.80;78.24;98191.66;5028551;28;20007;-79
2021/12/07 09:19:21;;;;;;;;;;;;;;;11.90;78.09;98186.84;5016763;28;20015;-82
2021/12/07 09:21:46;;;;;;;;;;;;;;;11.75;79.11;98177.81;5023896;28;19920;-82
2021/12/07 09:24:11;;;;;;;;;;;;;;;11.73;78.06;98177.03;5028387;28;19916;-80
2021/12/07 09:26:37;;;;;;;;;;;;;;;11.65;78.89;98178.22;5029112;28;19917;-82
2021/12/07 09:29:03;;;;;;;;;;;;;;;11.77;78.58;98173.31;5028764;28;19920;-80
2021/12/07 09:31:28;;;;;;;;;;;;;;;11.51;78.12;98177.09;5028208;28;19936;-79
2021/12/07 09:33:55;;;;;;;;;;;;;;;11.25;79.65;98187.00;5029025;28;19924;-81
2021/12/07 09:36:20;;;;;;;;;;;;;;;10.94;80.06;98198.81;5028942;28;20036;-81
2021/12/07 09:38:46;;;;;;;;;;;;;;;11.01;80.00;98197.63;5027261;28;20458;-79
2021/12/07 09:41:12;;;;;;;;;;;;;;;10.81;81.00;98190.50;5029439;28;20020;-79
2021/12/07 09:43:37;;;;;;;;;;;;;;;10.94;80.50;98188.25;5028336;28;20330;-79
2021/12/07 09:46:04;;;;;;;;;;;;;;;11.01;80.10;98173.88;5027359;28;19917;-80
2021/12/07 09:48:29;;;;;;;;;;;;;;;10.91;79.99;98172.53;5020356;28;19952;-79
2021/12/07 09:50:55;;;;;;;;;;;;;;;10.75;81.59;98167.88;5025428;28;20383;-79
2021/12/07 09:53:21;;;;;;;;;;;;;;;10.91;81.20;98157.56;5014176;28;19917;-80
2021/12/07 09:55:47;;;;;;;;;;;;;;;11.10;80.23;98147.09;5017934;28;19967;-81
2021/12/07 09:58:13;;;;;;;;;;;;;;;11.23;79.59;98154.50;5026408;28;20704;-80
2021/12/07 10:00:39;;;;;;;;;;;;;;;10.87;79.46;98160.38;5021819;28;19922;-79
2021/12/07 10:03:04;;;;;;;;;;;;;;;11.07;79.20;98151.66;5025853;28;19921;-79
2021/12/07 10:05:32;;;;;;;;;;;;;;;10.61;78.78;98146.47;5026390;28;20461;-81
2021/12/07 10:07:58;;;;;;;;;;;;;;;10.68;79.53;98149.72;5026897;28;19928;-82
2021/12/07 10:10:28;;;;;;;;;;;;;;;10.82;78.65;98149.19;5027985;28;19917;-81
2021/12/07 10:12:53;;;;;;;;;;;;;;;10.66;79.85;98149.78;5026643;28;19913;-81
2021/12/07 10:15:20;;;;;;;;;;;;;;;10.35;81.44;98143.09;5026801;28;20402;-81
2021/12/07 10:18:02;;;;;;;;;;;;;;;10.13;82.13;98137.75;5027966;28;19971;-81
2021/12/07 10:20:42;;;;;;;;;;;;;;;10.35;82.13;98137.81;5026746;28;19972;-80
2021/12/07 10:23:13;;;;;;;;;;;;;;;10.23;82.10;98125.09;5027237;28;19921;-80
2021/12/07 10:25:40;;;;;;;;;;;;;;;10.08;81.77;98130.94;5025946;28;19917;-82
2021/12/07 10:28:23;;;;;;;;;;;;;;;10.05;81.74;98129.28;5027275;28;19917;-82
2021/12/07 10:30:49;;;;;;;;;;;;;;;10.06;82.71;98127.50;5018407;28;19964;-81
2021/12/07 10:33:16;;;;;;;;;;;;;;;10.15;82.79;98125.38;5017677;28;20367;-83
2021/12/07 10:35:41;;;;;;;;;;;;;;;10.11;80.81;98120.28;5015945;28;19921;-81
2021/12/07 10:38:06;;;;;;;;;;;;;;;9.78;81.18;98123.28;5023870;28;19924;-80
2021/12/07 10:40:32;;;;;;;;;;;;;;;9.85;81.40;98127.38;5027501;28;19917;-81
2021/12/07 10:42:57;;;;;;;;;;;;;;;9.97;80.98;98126.06;5026456;28;20303;-83
2021/12/07 10:45:26;;;;;;;;;;;;;;;10.16;81.39;98118.31;5027333;28;20000;-81
2021/12/07 10:47:52;;;;;;;;;;;;;;;10.12;80.07;98120.22;5025918;28;19917;-86
2021/12/07 10:50:18;;;;;;;;;;;;;;;10.18;80.64;98122.63;5026517;28;19924;-83
2021/12/07 10:52:45;;;;;;;;;;;;;;;10.06;79.76;98119.59;5026607;28;20373;-82
2021/12/07 10:55:15;;;;;;;;;;;;;;;10.02;80.44;98119.72;5026226;28;20021;-82
2021/12/07 10:58:07;;;;;;;;;;;;;;;9.48;80.53;98113.81;5023845;28;19917;-81
2021/12/07 11:00:36;;;;;;;;;;;;;;;9.43;81.39;98104.34;5022520;28;19917;-82
2021/12/07 11:03:07;;;;;;;;;;;;;;;9.82;80.34;98101.16;5026829;28;19917;-85
2021/12/07 11:05:37;;;;;;;;;;;;;;;9.67;80.73;98094.72;5027287;28;19913;-84
2021/12/07 11:08:03;;;;;;;;;;;;;;;9.42;79.82;98092.97;5026321;28;19974;-83
2021/12/07 11:10:31;;;;;;;;;;;;;;;9.57;79.65;98088.91;5026424;28;19917;-82
2021/12/07 11:15:33;;;;;;;;;;;;;;;9.98;79.52;98098.81;5026564;28;20367;-82
2021/12/07 11:18:00;;;;;;;;;;;;;;;10.00;79.01;98091.72;5026311;28;19917;-81
2021/12/07 11:20:27;;;;;;;;;;;;;;;9.60;78.34;98094.03;5022034;28;20299;-84
2021/12/07 11:22:55;;;;;;;;;;;;;;;9.46;79.58;98096.34;5007326;28;19972;-82
2021/12/07 11:31:15;;;;;;;;;;;;;;;9.29;80.68;98084.63;5004745;28;19924;-83
2021/12/07 11:33:41;;;;;;;;;;;;;;;9.50;78.32;98077.75;5005945;28;19913;-84
2021/12/07 11:36:26;;;;;;;;;;;;;;;9.42;78.73;98061.38;5006742;28;20373;-83
2021/12/07 11:38:52;;;;;;;;;;;;;;;9.44;78.55;98071.84;5007135;28;19919;-82
2021/12/07 11:41:22;;;;;;;;;;;;;;;9.67;77.64;98084.19;5007078;28;19967;-82
2021/12/07 11:43:56;;;;;;;;;;;;;;;9.26;77.39;98074.22;5006758;28;20011;-82
2021/12/07 11:46:23;;;;;;;;;;;;;;;9.45;77.95;98071.78;5007290;28;19913;-82
2021/12/07 11:48:48;;;;;;;;;;;;;;;9.57;78.52;98069.63;5006653;28;19918;-82
2021/12/07 11:51:13;;;;;;;;;;;;;;;9.02;79.24;98081.22;5005883;28;19944;-82
2021/12/07 11:53:39;;;;;;;;;;;;;;;8.84;79.30;98085.31;5005918;28;19917;-82
2021/12/07 11:56:04;;;;;;;;;;;;;;;8.76;79.25;98088.19;5006165;28;19920;-82
2021/12/07 11:58:30;;;;;;;;;;;;;;;8.64;79.66;98080.72;5006197;28;19913;-82
2021/12/07 12:00:57;;;;;;;;;;;;;;;8.54;80.25;98077.53;5006403;28;19921;-83
2021/12/07 12:03:23;;;;;;;;;;;;;;;8.63;79.11;98075.50;5009223;28;19910;-83
2021/12/07 12:05:50;;;;;;;;;;;;;;;8.62;79.99;98077.28;5009846;28;19921;-84
2021/12/07 12:08:19;;;;;;;;;;;;;;;8.41;79.79;98078.78;5010354;28;19921;-81
2021/12/07 12:10:46;;;;;;;;;;;;;;;8.36;80.34;98068.44;5010078;28;20079;-83
2021/12/07 12:13:12;;;;;;;;;;;;;;;8.33;81.12;98075.56;5010754;28;19913;-82
2021/12/07 12:15:46;;;;;;;;;;;;;;;8.40;80.01;98070.06;5010405;28;19921;-83
2021/12/07 12:18:27;;;;;;;;;;;;;;;8.54;80.67;98060.88;5010000;28;19921;-82
2021/12/07 12:20:56;;;;;;;;;;;;;;;8.34;82.22;98058.88;5010414;28;20426;-81
2021/12/07 12:23:33;;;;;;;;;;;;;;;8.22;83.10;98053.09;5009914;28;19917;-81
2021/12/07 12:26:02;;;;;;;;;;;;;;;7.98;83.20;98044.22;5009701;28;20440;-81
2021/12/07 12:28:35;;;;;;;;;;;;;;;8.11;82.97;98059.59;5007492;28;20649;-83
2021/12/07 12:31:00;;;;;;;;;;;;;;;8.13;82.59;98057.81;5024029;28;19928;-82
2021/12/07 12:33:42;;;;;;;;;;;;;;;7.81;82.08;98039.47;5029300;28;19912;-81
2021/12/07 12:36:07;;;;;;;;;;;;;;;7.97;82.31;98062.66;5028856;28;19917;-81
2021/12/07 12:38:33;;;;;;;;;;;;;;;7.96;81.86;98066.19;5029186;28;19920;-82
2021/12/07 12:41:01;;;;;;;;;;;;;;;7.80;82.51;98058.78;5029826;28;19921;-82
2021/12/07 12:43:33;;;;;;;;;;;;;;;7.78;82.01;98059.72;5029166;28;19990;-83
2021/12/07 12:46:03;;;;;;;;;;;;;;;7.58;82.37;98058.53;5030294;28;20318;-82
2021/12/07 12:48:28;;;;;;;;;;;;;;;7.51;83.13;98063.09;5029762;28;19917;-82
2021/12/07 12:50:54;;;;;;;;;;;;;;;7.50;82.46;98065.78;5029155;28;19917;-81
2021/12/07 12:53:25;;;;;;;;;;;;;;;7.57;81.97;98063.81;5029614;28;20368;-82
2021/12/07 12:55:54;;;;;;;;;;;;;;;7.55;82.01;98065.66;5028825;28;20003;-82
2021/12/07 12:58:29;;;;;;;;;;;;;;;7.33;82.95;98061.84;5028730;28;19925;-81
2021/12/07 13:01:08;;;;;;;;;;;;;;;7.19;83.84;98055.28;5030305;28;20031;-81
2021/12/07 13:03:39;;;;;;;;;;;;;;;7.28;83.47;98050.66;5029538;28;20016;-82
2021/12/07 13:06:04;;;;;;;;;;;;;;;7.22;82.78;98063.94;5029059;28;20314;-82
2021/12/07 13:08:30;;;;;;;;;;;;;;;7.24;82.39;98072.59;5029297;28;19917;-81
2021/12/07 13:11:00;;;;;;;;;;;;;;;7.13;82.11;98070.28;5029493;28;20001;-82
2021/12/07 13:13:34;;;;;;;;;;;;;;;7.25;82.33;98068.25;5029568;28;19923;-84
2021/12/07 13:16:11;;;;;;;;;;;;;;;7.13;81.90;98065.03;5029247;28;19919;-83
2021/12/07 13:18:39;;;;;;;;;;;;;;;6.99;83.80;98057.53;5029344;28;19923;-84
2021/12/07 13:21:17;;;;;;;;;;;;;;;6.96;83.56;98065.47;5029315;28;19956;-82
2021/12/07 13:23:55;;;;;;;;;;;;;;;6.96;83.83;98069.88;5029045;28;19913;-82
2021/12/07 13:26:21;;;;;;;;;;;;;;;6.89;83.85;98076.16;5029019;28;20288;-81
2021/12/07 13:29:00;;;;;;;;;;;;;;;6.88;84.04;98077.94;5029196;28;19925;-83
2021/12/07 13:31:34;;;;;;;;;;;;;;;6.82;84.12;98078.94;5023391;28;19921;-83
2021/12/07 13:34:01;;;;;;;;;;;;;;;6.71;84.28;98065.25;5016781;28;20395;-82
2021/12/07 13:36:45;;;;;;;;;;;;;;;6.72;83.44;98061.75;5017241;28;20020;-80
2021/12/07 13:39:14;;;;;;;;;;;;;;;6.52;83.48;98070.13;5016464;28;20031;-81
2021/12/07 13:41:46;;;;;;;;;;;;;;;6.53;85.06;98070.97;5019764;28;20055;-81
2021/12/07 13:44:11;;;;;;;;;;;;;;;6.41;84.30;98075.63;5021980;28;19921;-80
2021/12/07 13:46:36;;;;;;;;;;;;;;;6.41;84.01;98075.63;5007935;28;19928;-81
2021/12/07 13:49:07;;;;;;;;;;;;;;;6.42;83.81;98072.06;5009072;28;20011;-82
2021/12/07 13:51:33;;;;;;;;;;;;;;;6.49;83.59;98074.53;5008983;28;19921;-83
2021/12/07 13:54:00;;;;;;;;;;;;;;;6.47;84.21;98071.97;5008451;28;19923;-82
2021/12/07 13:56:26;;;;;;;;;;;;;;;6.41;85.00;98067.75;5008610;28;20029;-83
2021/12/07 13:58:56;;;;;;;;;;;;;;;6.24;85.09;98070.78;5018741;28;19960;-81
2021/12/07 14:01:27;;;;;;;;;;;;;;;6.17;86.09;98074.41;5028647;28;19921;-81
2021/12/07 14:03:52;;;;;;;;;;;;;;;6.28;86.16;98084.63;5027304;28;20437;-82
2021/12/07 14:06:18;;;;;;;;;;;;;;;6.12;87.08;98089.38;5027477;28;19917;-80
2021/12/07 14:08:43;;;;;;;;;;;;;;;5.94;86.46;98089.75;5028102;28;20014;-82
2021/12/07 14:11:11;;;;;;;;;;;;;;;5.97;87.13;98089.72;5027937;28;19917;-80
2021/12/07 14:13:41;;;;;;;;;;;;;;;6.02;86.71;98100.94;5020254;28;19917;-81
2021/12/07 14:16:06;;;;;;;;;;;;;;;6.02;86.64;98096.56;5008774;28;19923;-81
2021/12/07 14:18:35;;;;;;;;;;;;;;;5.96;85.90;98099.28;5017946;28;19917;-82
2021/12/07 14:21:01;;;;;;;;;;;;;;;5.92;87.06;98106.34;5025936;28;19964;-82
2021/12/07 14:23:26;;;;;;;;;;;;;;;5.84;87.01;98103.03;5026847;28;20398;-81
2021/12/07 14:26:00;;;;;;;;;;;;;;;5.92;86.78;98108.97;5025039;28;19924;-81
2021/12/07 14:28:42;;;;;;;;;;;;;;;5.74;86.07;98099.75;5026104;28;19971;-81
2021/12/07 14:31:11;;;;;;;;;;;;;;;5.85;85.26;98093.44;5027152;28;20302;-80
2021/12/07 14:33:42;;;;;;;;;;;;;;;5.73;85.91;98081.44;5026550;28;19959;-80
2021/12/07 14:36:08;;;;;;;;;;;;;;;5.75;84.80;98092.78;5027090;28;19921;-80
2021/12/07 14:38:34;;;;;;;;;;;;;;;5.91;85.19;98106.38;5027110;28;19917;-81
2021/12/07 14:41:01;;;;;;;;;;;;;;;5.72;84.14;98119.00;5026874;28;19916;-80
2021/12/07 14:43:27;;;;;;;;;;;;;;;5.85;83.11;98120.44;5026767;28;20003;-79